Chesaw, Washington
Current Conditions -  °F | °C
As of 9:53 PM on Monday 20 Oct 2014 (Local Time) from KOMK Reporting Station
Scattered Clouds Scattered Clouds  
Wind Chill: 52°   Ceiling: Unl
Heat Index: 52°   Visibility: 10mi
Dew Point: 50°   Wind: 8mph
Humidity: 93%   Direction: 180°S
Pressure: 29.78"   Gusts: NA
Location:  48.9273°N, 119.255°W
Report Text: KOMK 210453Z AUTO 18007KT 10SM SCT039 11/10 A2978 RMK AO2 SLP085 T01110100
Loading
Personal Weather Stations






























Interactive Weather Map
Tropical Storm Tracking
New forecast layout! Learn more

10-Day Weather Forecast

Advertisements
Track Severe Weather on mobile